Portada
METAR-TAF:

METAR-TAF

Aeropuertos :

Aeropuerto Internacional Roman Tmetuchl

Koror, Babeldaob, Palaos

latitud: 07-22N, longitud: 134-32E, altitud: 54 m

Observación

El informe se hizo hace 1 hora y 15 minutos, a las 04:50 UTC
Viento 8 kt del sur-suroeste
Temperatura 29°C
Humedad 79%
Presión 1008 hPa
Visibilidad: 24.1 km
Cielo nuboso a una altura de 1500 ft, Cumulus congestus.
Cielo nuboso a una altura de 12000 ft
Cielo cubierto a una altura de 30000 ft

METAR: PTRO 210450Z 21008KT 15SM BKN015TCU BKN120 OVC300 29/25 A2976 RMK TCU ALQDS

Hora: 15:05 (06:05 UTC)

Pronóstico

El informe se hizo hace 2 horas y 48 minutos, a las 03:17 UTC
Pronóstico válido del 21 a las 03 UTC al 21 a las 24 UTC
Viento 9 kt del oeste
Visibilidad: 10 km
Nubes dispersas a una altura de 1600 ft
Nubes dispersas a una altura de 15000 ft
chaparrones en las proximidades

TAF: PTRO 210317Z 2103/2124 26009KT P6SM VCSH SCT016 SCT150

Observaciones y pronósticos meteorológicos de más de 4000 aeropuertos (mensajes METAR y TAF).

Los puntos amarillos y rojos representan las estaciones disponibles.

Ponga el ratón en el punto deseado para ver el nombre de la estación.

Haga clic para ver las observaciones y los pronósticos meteorológicos.

Para cambiar el mapa : haga clic en los botones verdes con una cruz de color negro para hacer un zoom, en el botón verde con un guión para alejar o en las flechas verdes para mapas adyacentes.


METAR-TAF: